createdAt,value
2018-04-29T00:04:16.630Z,98951.72
2018-04-29T00:06:44.161Z,98947.96
2018-04-29T00:09:11.718Z,98955.16
2018-04-29T00:11:39.222Z,98945.91
2018-04-29T00:14:06.719Z,98948.19
2018-04-29T00:16:34.177Z,98939.61
2018-04-29T00:19:01.667Z,98939.83
2018-04-29T00:21:29.148Z,98940.32
2018-04-29T00:23:56.635Z,98934.16
2018-04-29T00:26:24.116Z,98923.69
2018-04-29T00:28:51.642Z,98929.95
2018-04-29T00:31:19.449Z,98940.47
2018-04-29T00:33:46.927Z,98937.73
2018-04-29T00:36:14.429Z,98938.92
2018-04-29T00:38:41.998Z,98937.42
2018-04-29T00:41:09.433Z,98931.64
2018-04-29T00:46:03.685Z,98937.58
2018-04-29T00:48:31.168Z,98934.12
2018-04-29T00:50:58.636Z,98934.61
2018-04-29T00:53:26.116Z,98930.34
2018-04-29T00:55:53.616Z,98927.72
2018-04-29T00:58:21.119Z,98929.40
2018-04-29T01:00:48.640Z,98929.85
2018-04-29T01:03:16.102Z,98935.66
2018-04-29T01:05:43.637Z,98925.98
2018-04-29T01:08:11.168Z,98930.34
2018-04-29T01:10:38.646Z,98930.86
2018-04-29T01:13:06.134Z,98929.69
2018-04-29T01:15:33.608Z,98927.48
2018-04-29T01:18:01.133Z,98914.33
2018-04-29T01:20:28.679Z,98920.14
2018-04-29T01:22:56.228Z,98922.27
2018-04-29T01:25:23.710Z,98922.59
2018-04-29T01:27:51.201Z,98911.47
2018-04-29T01:30:18.683Z,98912.05
2018-04-29T01:32:46.182Z,98907.52
2018-04-29T01:35:13.686Z,98904.31
2018-04-29T01:37:41.186Z,98908.95
2018-04-29T01:40:08.685Z,98911.42
2018-04-29T01:42:36.184Z,98905.77
2018-04-29T01:45:03.709Z,98906.41
2018-04-29T01:47:31.202Z,98903.63
2018-04-29T01:49:58.727Z,98907.30
2018-04-29T01:52:26.220Z,98907.16
2018-04-29T01:54:53.718Z,98906.02
2018-04-29T01:57:21.228Z,98910.31
2018-04-29T01:59:48.740Z,98908.33
2018-04-29T02:02:16.229Z,98912.41
2018-04-29T02:04:43.707Z,98910.00
2018-04-29T02:07:11.224Z,98910.28
2018-04-29T02:09:38.743Z,98905.42
2018-04-29T02:12:06.255Z,98902.84
2018-04-29T02:14:33.743Z,98902.63
2018-04-29T02:17:01.235Z,98904.20
2018-04-29T02:19:28.757Z,98900.08
2018-04-29T02:21:56.262Z,98896.38
2018-04-29T02:24:23.771Z,98905.70
2018-04-29T02:26:51.241Z,98905.70
2018-04-29T02:29:18.723Z,98909.20
2018-04-29T02:31:46.223Z,98902.08
2018-04-29T02:34:13.738Z,98905.38
2018-04-29T02:36:41.232Z,98901.91
2018-04-29T02:39:08.832Z,98902.68
2018-04-29T02:41:36.331Z,98897.00
2018-04-29T02:44:03.828Z,98902.00
2018-04-29T02:46:31.351Z,98904.51
2018-04-29T02:48:58.839Z,98896.30
2018-04-29T02:51:26.339Z,98898.27
2018-04-29T02:53:53.816Z,98896.87
2018-04-29T02:56:21.305Z,98887.98
2018-04-29T02:58:48.816Z,98892.05
2018-04-29T03:01:16.328Z,98890.39
2018-04-29T03:03:43.829Z,98889.34
2018-04-29T03:06:11.351Z,98890.77
2018-04-29T03:08:38.842Z,98891.11
2018-04-29T03:11:06.315Z,98887.23
2018-04-29T03:13:33.799Z,98885.49
2018-04-29T03:16:01.247Z,98880.19
2018-04-29T03:18:28.746Z,98878.17
2018-04-29T03:20:56.236Z,98875.00
2018-04-29T03:23:23.721Z,98869.28
2018-04-29T03:25:51.228Z,98868.14
2018-04-29T03:28:18.727Z,98870.31
2018-04-29T03:30:46.237Z,98868.58
2018-04-29T03:33:13.718Z,98875.70
2018-04-29T03:35:41.308Z,98875.56
2018-04-29T03:38:08.752Z,98878.59
2018-04-29T03:40:36.246Z,98877.30
2018-04-29T03:43:03.743Z,98877.75
2018-04-29T03:45:31.236Z,98877.61
2018-04-29T03:47:58.748Z,98876.27
2018-04-29T03:50:26.251Z,98872.06
2018-04-29T03:52:53.729Z,98881.12
2018-04-29T03:58:06.609Z,98874.90
2018-04-29T04:00:49.133Z,98874.37
2018-04-29T04:03:28.361Z,98874.14
2018-04-29T04:05:55.852Z,98876.13
2018-04-29T04:08:23.860Z,98877.95
2018-04-29T04:10:51.374Z,98882.41
2018-04-29T04:13:19.431Z,98881.68
2018-04-29T04:15:46.935Z,98881.04
2018-04-29T04:18:15.479Z,98894.69
2018-04-29T04:20:42.943Z,98895.47
2018-04-29T04:23:10.455Z,98889.11
2018-04-29T04:25:38.012Z,98892.31
2018-04-29T04:28:05.505Z,98894.10
2018-04-29T04:30:33.015Z,98885.23
2018-04-29T04:33:00.519Z,98887.05
2018-04-29T04:35:28.011Z,98888.98
2018-04-29T04:37:55.520Z,98889.66
2018-04-29T04:40:23.015Z,98890.63
2018-04-29T04:42:50.493Z,98893.19
2018-04-29T04:45:18.131Z,98895.57
2018-04-29T04:47:45.645Z,98894.47
2018-04-29T04:50:13.122Z,98894.44
2018-04-29T04:52:40.609Z,98906.14
2018-04-29T04:55:08.100Z,98901.40
2018-04-29T04:57:35.586Z,98899.35
2018-04-29T05:00:03.073Z,98899.12
2018-04-29T05:02:30.563Z,98906.45
2018-04-29T05:04:58.040Z,98910.79
2018-04-29T05:09:58.177Z,98914.50
2018-04-29T05:12:26.319Z,98914.77
2018-04-29T05:14:53.802Z,98909.08
2018-04-29T05:17:21.290Z,98913.41
2018-04-29T05:19:48.796Z,98922.73
2018-04-29T05:22:16.389Z,98918.42
2018-04-29T05:24:43.877Z,98925.69
2018-04-29T05:27:11.373Z,98934.28
2018-04-29T05:29:38.852Z,98925.31
2018-04-29T05:32:06.347Z,98925.11
2018-04-29T05:34:33.847Z,98920.16
2018-04-29T05:37:01.336Z,98917.08
2018-04-29T05:39:28.814Z,98913.70
2018-04-29T05:41:56.310Z,98918.56
2018-04-29T05:44:23.829Z,98921.87
2018-04-29T05:46:51.335Z,98925.80
2018-04-29T05:49:18.868Z,98924.39
2018-04-29T05:51:46.487Z,98929.01
2018-04-29T05:54:13.980Z,98928.38
2018-04-29T05:56:41.487Z,98924.83
2018-04-29T05:59:09.089Z,98920.54
2018-04-29T06:01:36.896Z,98921.44
2018-04-29T06:04:04.419Z,98916.09
2018-04-29T06:06:31.947Z,98911.39
2018-04-29T06:09:00.211Z,98912.36
2018-04-29T06:11:27.732Z,98920.45
2018-04-29T06:13:55.225Z,98919.89
2018-04-29T06:16:22.706Z,98917.19
2018-04-29T06:18:50.193Z,98919.56
2018-04-29T06:21:17.691Z,98918.20
2018-04-29T06:23:46.104Z,98917.59
2018-04-29T06:26:13.608Z,98919.20
2018-04-29T06:28:41.123Z,98921.49
2018-04-29T06:31:08.697Z,98924.23
2018-04-29T06:33:36.228Z,98931.36
2018-04-29T06:36:03.753Z,98926.99
2018-04-29T06:38:31.266Z,98925.19
2018-04-29T06:40:59.266Z,98930.34
2018-04-29T06:43:26.807Z,98926.77
2018-04-29T06:45:54.321Z,98923.61
2018-04-29T06:48:21.822Z,98921.83
2018-04-29T06:50:49.327Z,98917.23
2018-04-29T06:53:16.922Z,98916.09
2018-04-29T06:55:44.438Z,98922.19
2018-04-29T06:58:11.920Z,98918.41
2018-04-29T07:00:39.441Z,98922.35
2018-04-29T07:03:06.947Z,98917.73
2018-04-29T07:05:34.463Z,98918.06
2018-04-29T07:08:02.033Z,98921.36
2018-04-29T07:10:29.544Z,98918.48
2018-04-29T07:12:57.037Z,98914.38
2018-04-29T07:15:24.547Z,98915.34
2018-04-29T07:17:52.055Z,98922.25
2018-04-29T07:20:19.895Z,98915.16
2018-04-29T07:22:47.379Z,98915.75
2018-04-29T07:25:14.870Z,98911.61
2018-04-29T07:27:42.351Z,98913.40
2018-04-29T07:30:09.856Z,98905.46
2018-04-29T07:32:37.373Z,98907.14
2018-04-29T07:35:04.919Z,98909.01
2018-04-29T07:37:32.451Z,98906.47
2018-04-29T07:40:00.056Z,98913.42
2018-04-29T07:42:27.554Z,98910.67
2018-04-29T07:44:55.067Z,98907.69
2018-04-29T07:47:22.629Z,98913.66
2018-04-29T07:49:50.131Z,98914.38
2018-04-29T07:52:17.747Z,98918.64
2018-04-29T07:54:45.199Z,98921.02
2018-04-29T07:57:12.811Z,98922.52
2018-04-29T07:59:41.591Z,98919.25
2018-04-29T08:02:09.128Z,98915.95
2018-04-29T08:04:36.683Z,98923.61
2018-04-29T08:07:04.218Z,98927.34
2018-04-29T08:09:31.692Z,98928.45
2018-04-29T08:11:59.166Z,98925.44
2018-04-29T08:14:26.642Z,98926.37
2018-04-29T08:16:54.215Z,98928.44
2018-04-29T08:19:21.707Z,98928.85
2018-04-29T08:21:49.268Z,98922.70
2018-04-29T08:24:16.978Z,98924.34
2018-04-29T08:26:44.507Z,98921.34
2018-04-29T08:29:12.216Z,98926.43
2018-04-29T08:31:39.831Z,98922.25
2018-04-29T08:34:07.378Z,98923.06
2018-04-29T08:36:34.880Z,98927.61
2018-04-29T08:39:02.408Z,98931.61
2018-04-29T08:41:29.929Z,98924.45
2018-04-29T08:43:57.495Z,98924.31
2018-04-29T08:46:24.987Z,98925.36
2018-04-29T08:48:52.491Z,98920.84
2018-04-29T08:51:20.003Z,98917.04
2018-04-29T08:53:47.539Z,98920.88
2018-04-29T08:56:15.357Z,98919.66
2018-04-29T08:58:42.852Z,98920.86
2018-04-29T09:01:10.397Z,98909.70
2018-04-29T09:03:37.981Z,98912.61
2018-04-29T09:06:05.503Z,98909.45
2018-04-29T09:08:33.012Z,98905.86
2018-04-29T09:11:00.538Z,98905.91
2018-04-29T09:13:28.048Z,98904.94
2018-04-29T09:15:55.571Z,98910.09
2018-04-29T09:18:23.357Z,98912.11
2018-04-29T09:20:50.896Z,98906.41
2018-04-29T09:23:18.547Z,98901.70
2018-04-29T09:25:46.060Z,98897.91
2018-04-29T09:28:13.551Z,98898.02
2018-04-29T09:30:41.044Z,98896.59
2018-04-29T09:33:08.546Z,98890.41
2018-04-29T09:35:36.026Z,98885.91
2018-04-29T09:38:03.519Z,98887.36
2018-04-29T09:40:31.153Z,98886.98
2018-04-29T09:42:58.638Z,98886.52
2018-04-29T09:45:26.136Z,98885.59
2018-04-29T09:47:53.623Z,98885.95
2018-04-29T09:50:21.180Z,98886.23
2018-04-29T09:52:48.695Z,98872.75
2018-04-29T09:55:16.235Z,98879.80
2018-04-29T09:57:43.699Z,98875.95
2018-04-29T10:00:11.262Z,98874.86
2018-04-29T10:02:44.427Z,98876.08
2018-04-29T10:05:11.944Z,98878.13
2018-04-29T10:07:39.431Z,98871.64
2018-04-29T10:10:06.916Z,98873.07
2018-04-29T10:12:34.447Z,98866.16
2018-04-29T10:15:01.984Z,98863.19
2018-04-29T10:17:29.512Z,98858.53
2018-04-29T10:19:57.007Z,98854.06
2018-04-29T10:22:24.512Z,98857.59
2018-04-29T10:24:52.093Z,98849.92
2018-04-29T10:27:19.611Z,98840.05
2018-04-29T10:29:47.150Z,98852.42
2018-04-29T10:32:14.700Z,98835.13
2018-04-29T10:34:42.215Z,98836.84
2018-04-29T10:37:09.742Z,98836.30
2018-04-29T10:39:37.396Z,98827.05
2018-04-29T10:42:04.934Z,98827.19
2018-04-29T10:44:32.431Z,98826.22
2018-04-29T10:46:59.951Z,98820.88
2018-04-29T10:49:27.503Z,98815.47
2018-04-29T10:51:55.052Z,98818.07
2018-04-29T10:54:22.531Z,98812.91
2018-04-29T10:56:50.015Z,98802.97
2018-04-29T10:59:17.559Z,98799.57
2018-04-29T11:01:45.131Z,98806.16
2018-04-29T11:04:12.618Z,98803.20
2018-04-29T11:06:40.139Z,98802.84
2018-04-29T11:09:07.682Z,98791.84
2018-04-29T11:11:35.196Z,98785.28
2018-04-29T11:14:02.747Z,98786.73
2018-04-29T11:16:30.270Z,98779.73
2018-04-29T11:18:57.879Z,98774.44
2018-04-29T11:21:25.862Z,98766.70
2018-04-29T11:23:53.347Z,98766.36
2018-04-29T11:26:20.863Z,98755.55
2018-04-29T11:28:48.389Z,98757.66
2018-04-29T11:31:15.902Z,98769.17
2018-04-29T11:33:43.440Z,98758.18
2018-04-29T11:36:11.011Z,98751.64
2018-04-29T11:38:38.505Z,98758.91
2018-04-29T11:41:06.004Z,98754.44
2018-04-29T11:43:34.894Z,98755.53
2018-04-29T11:46:02.409Z,98755.50
2018-04-29T11:48:30.616Z,98756.70
2018-04-29T11:50:58.103Z,98750.80
2018-04-29T11:53:25.690Z,98738.95
2018-04-29T11:55:53.241Z,98746.48
2018-04-29T11:58:20.811Z,98746.80
2018-04-29T12:00:48.364Z,98745.62
2018-04-29T12:03:15.952Z,98734.34
2018-04-29T12:05:43.483Z,98738.20
2018-04-29T12:08:11.029Z,98739.50
2018-04-29T12:10:38.615Z,98737.20
2018-04-29T12:13:06.171Z,98732.77
2018-04-29T12:15:33.967Z,98728.55
2018-04-29T12:18:01.527Z,98724.97
2018-04-29T12:20:29.147Z,98721.11
2018-04-29T12:22:56.696Z,98721.47
2018-04-29T12:25:24.214Z,98721.58
2018-04-29T12:27:51.745Z,98717.00
2018-04-29T12:30:19.320Z,98714.10
2018-04-29T12:32:46.816Z,98714.38
2018-04-29T12:35:14.304Z,98715.95
2018-04-29T12:37:41.895Z,98714.92
2018-04-29T12:40:09.491Z,98704.09
2018-04-29T12:42:37.071Z,98704.81
2018-04-29T12:45:04.568Z,98710.20
2018-04-29T12:47:32.044Z,98699.61
2018-04-29T12:49:59.644Z,98695.22
2018-04-29T12:52:27.118Z,98685.52
2018-04-29T12:54:54.677Z,98691.45
2018-04-29T12:57:22.167Z,98683.76
2018-04-29T12:59:49.945Z,98688.55
2018-04-29T13:02:17.422Z,98680.27
2018-04-29T13:04:44.964Z,98677.56
2018-04-29T13:07:12.523Z,98673.23
2018-04-29T13:09:40.016Z,98679.06
2018-04-29T13:12:07.504Z,98676.25
2018-04-29T13:14:35.046Z,98649.95
2018-04-29T13:17:02.566Z,98670.05
2018-04-29T13:19:30.886Z,98662.88
2018-04-29T13:21:58.395Z,98663.69
2018-04-29T13:24:25.873Z,98659.55
2018-04-29T13:26:53.347Z,98646.05
2018-04-29T13:29:20.832Z,98651.53
2018-04-29T13:31:48.373Z,98648.73
2018-04-29T13:34:15.913Z,98645.48
2018-04-29T13:36:43.457Z,98641.04
2018-04-29T13:39:10.954Z,98641.08
2018-04-29T13:41:38.467Z,98638.42
2018-04-29T13:44:06.007Z,98626.68
2018-04-29T13:46:33.505Z,98620.58
2018-04-29T13:49:00.983Z,98624.95
2018-04-29T13:51:28.523Z,98614.61
2018-04-29T13:53:56.029Z,98621.84
2018-04-29T13:56:23.628Z,98614.61
2018-04-29T13:58:51.230Z,98616.09
2018-04-29T14:01:18.754Z,98610.26
2018-04-29T14:03:46.249Z,98619.01
2018-04-29T14:06:13.812Z,98612.95
2018-04-29T14:08:41.299Z,98614.59
2018-04-29T14:11:08.799Z,98617.00
2018-04-29T14:13:36.317Z,98607.21
2018-04-29T14:16:05.919Z,98607.53
2018-04-29T14:18:33.384Z,98611.09
2018-04-29T14:21:00.896Z,98615.44
2018-04-29T14:23:28.464Z,98617.12
2018-04-29T14:25:56.055Z,98606.57
2018-04-29T14:28:23.562Z,98597.98
2018-04-29T14:30:51.050Z,98601.52
2018-04-29T14:33:18.632Z,98591.75
2018-04-29T14:35:46.140Z,98598.47
2018-04-29T14:38:13.633Z,98595.25
2018-04-29T14:40:41.116Z,98590.81
2018-04-29T14:43:08.677Z,98589.27
2018-04-29T14:45:36.182Z,98589.23
2018-04-29T14:48:03.672Z,98588.97
2018-04-29T14:50:31.181Z,98576.07
2018-04-29T14:52:58.677Z,98576.58
2018-04-29T14:55:26.177Z,98576.34
2018-04-29T14:57:53.710Z,98579.62
2018-04-29T15:00:21.198Z,98578.58
2018-04-29T15:02:48.703Z,98574.48
2018-04-29T15:05:16.189Z,98574.45
2018-04-29T15:07:43.681Z,98574.52
2018-04-29T15:10:11.192Z,98569.36
2018-04-29T15:12:38.695Z,98566.77
2018-04-29T15:15:06.187Z,98555.80
2018-04-29T15:17:33.719Z,98555.64
2018-04-29T15:20:01.257Z,98561.05
2018-04-29T15:22:28.806Z,98562.77
2018-04-29T15:24:56.260Z,98564.00
2018-04-29T15:27:23.723Z,98559.34
2018-04-29T15:29:51.522Z,98556.53
2018-04-29T15:32:19.005Z,98554.91
2018-04-29T15:34:46.516Z,98560.20
2018-04-29T15:37:14.010Z,98557.84
2018-04-29T15:39:41.494Z,98557.16
2018-04-29T15:42:08.996Z,98552.64
2018-04-29T15:44:36.472Z,98548.31
2018-04-29T15:47:03.926Z,98540.22
2018-04-29T15:49:31.416Z,98542.47
2018-04-29T15:51:58.906Z,98535.42
2018-04-29T15:54:26.376Z,98541.53
2018-04-29T15:56:53.962Z,98535.48
2018-04-29T15:59:21.430Z,98532.95
2018-04-29T16:01:48.947Z,98533.98
2018-04-29T16:04:16.446Z,98538.55
2018-04-29T16:06:43.973Z,98535.28
2018-04-29T16:09:11.542Z,98531.77
2018-04-29T16:11:39.090Z,98526.11
2018-04-29T16:14:06.576Z,98531.02
2018-04-29T16:16:34.067Z,98531.76
2018-04-29T16:19:01.557Z,98536.67
2018-04-29T16:21:29.024Z,98540.95
2018-04-29T16:23:56.552Z,98535.73
2018-04-29T16:26:24.055Z,98531.36
2018-04-29T16:28:51.534Z,98528.70
2018-04-29T16:31:19.021Z,98526.40
2018-04-29T16:33:46.523Z,98531.26
2018-04-29T16:36:13.989Z,98529.14
2018-04-29T16:38:41.494Z,98525.37
2018-04-29T16:41:08.987Z,98526.71
2018-04-29T16:43:36.843Z,98527.30
2018-04-29T16:46:04.332Z,98527.44
2018-04-29T16:48:31.894Z,98528.92
2018-04-29T16:50:59.433Z,98519.93
2018-04-29T16:53:26.974Z,98522.73
2018-04-29T16:55:54.461Z,98522.27
2018-04-29T16:58:21.969Z,98523.22
2018-04-29T17:00:49.481Z,98528.23
2018-04-29T17:03:17.041Z,98522.03
2018-04-29T17:05:44.555Z,98524.13
2018-04-29T17:08:12.330Z,98524.23
2018-04-29T17:10:39.837Z,98526.98
2018-04-29T17:13:07.306Z,98530.46
2018-04-29T17:15:34.756Z,98532.72
2018-04-29T17:18:02.933Z,98529.88
2018-04-29T17:20:30.421Z,98527.69
2018-04-29T17:22:57.901Z,98522.91
2018-04-29T17:25:25.384Z,98522.42
2018-04-29T17:27:52.844Z,98533.06
2018-04-29T17:30:20.375Z,98531.30
2018-04-29T17:32:47.875Z,98538.19
2018-04-29T17:35:15.361Z,98533.47
2018-04-29T17:37:42.860Z,98535.22
2018-04-29T17:40:10.344Z,98534.58
2018-04-29T17:42:37.841Z,98535.48
2018-04-29T17:45:05.378Z,98536.88
2018-04-29T17:47:33.007Z,98534.47
2018-04-29T17:50:00.493Z,98534.03
2018-04-29T17:52:28.003Z,98531.52
2018-04-29T17:54:55.465Z,98542.15
2018-04-29T17:57:23.133Z,98544.38
2018-04-29T17:59:50.600Z,98544.02
2018-04-29T18:02:18.064Z,98553.77
2018-04-29T18:04:45.530Z,98545.08
2018-04-29T18:07:13.059Z,98554.76
2018-04-29T18:09:40.512Z,98553.71
2018-04-29T18:12:08.000Z,98552.41
2018-04-29T18:14:35.509Z,98551.61
2018-04-29T18:17:03.038Z,98553.14
2018-04-29T18:19:30.480Z,98550.07
2018-04-29T18:21:57.957Z,98556.31
2018-04-29T18:24:25.487Z,98551.77
2018-04-29T18:26:52.935Z,98554.25
2018-04-29T18:29:20.386Z,98559.93
2018-04-29T18:31:47.842Z,98559.78
2018-04-29T18:34:15.337Z,98563.14
2018-04-29T18:36:42.859Z,98567.13
2018-04-29T18:39:10.334Z,98573.09
2018-04-29T18:41:37.875Z,98572.48
2018-04-29T18:44:05.368Z,98568.15
2018-04-29T18:46:34.472Z,98573.22
2018-04-29T18:49:01.986Z,98571.44
2018-04-29T18:51:29.638Z,98576.03
2018-04-29T18:53:57.008Z,98575.56
2018-04-29T18:56:24.546Z,98573.34
2018-04-29T18:58:52.015Z,98580.19
2018-04-29T19:01:19.516Z,98586.77
2018-04-29T19:03:46.964Z,98587.27
2018-04-29T19:06:14.424Z,98587.89
2018-04-29T19:08:41.937Z,98586.94
2018-04-29T19:11:09.526Z,98588.38
2018-04-29T19:13:36.987Z,98593.86
2018-04-29T19:16:04.463Z,98591.80
2018-04-29T19:18:31.951Z,98591.39
2018-04-29T19:20:59.507Z,98594.80
2018-04-29T19:23:27.010Z,98592.64
2018-04-29T19:25:54.499Z,98591.97
2018-04-29T19:28:21.979Z,98592.94
2018-04-29T19:30:49.437Z,98591.22
2018-04-29T19:33:16.959Z,98594.31
2018-04-29T19:35:44.429Z,98592.63
2018-04-29T19:38:11.926Z,98594.53
2018-04-29T19:43:13.208Z,98591.23
2018-04-29T19:45:40.705Z,98589.93
2018-04-29T19:48:08.181Z,98587.36
2018-04-29T19:50:35.718Z,98593.76
2018-04-29T19:53:03.197Z,98590.92
2018-04-29T19:55:30.661Z,98591.13
2018-04-29T19:57:58.133Z,98591.37
2018-04-29T20:00:25.586Z,98593.16
2018-04-29T20:02:53.157Z,98590.97
2018-04-29T20:05:20.655Z,98585.30
2018-04-29T20:07:48.147Z,98587.82
2018-04-29T20:10:15.659Z,98588.95
2018-04-29T20:12:43.146Z,98578.89
2018-04-29T20:15:10.627Z,98575.09
2018-04-29T20:17:38.130Z,98574.21
2018-04-29T20:20:05.653Z,98576.35
2018-04-29T20:22:33.166Z,98572.55
2018-04-29T20:25:00.644Z,98573.72
2018-04-29T20:27:28.140Z,98568.80
2018-04-29T20:29:55.715Z,98570.56
2018-04-29T20:32:33.770Z,98568.14
2018-04-29T20:35:01.241Z,98567.97
2018-04-29T20:37:28.698Z,98564.84
2018-04-29T20:39:56.181Z,98563.06
2018-04-29T20:42:23.653Z,98557.44
2018-04-29T20:44:51.135Z,98557.59
2018-04-29T20:47:18.622Z,98554.98
2018-04-29T20:49:46.107Z,98556.37
2018-04-29T20:52:13.577Z,98553.81
2018-04-29T20:54:41.044Z,98555.58
2018-04-29T20:57:08.587Z,98551.02
2018-04-29T20:59:36.090Z,98546.88
2018-04-29T21:02:03.607Z,98541.58
2018-04-29T21:04:31.144Z,98536.66
2018-04-29T21:06:58.622Z,98534.00
2018-04-29T21:09:26.158Z,98532.09
2018-04-29T21:11:53.634Z,98538.70
2018-04-29T21:14:21.156Z,98533.61
2018-04-29T21:16:48.764Z,98535.19
2018-04-29T21:19:16.230Z,98534.77
2018-04-29T21:21:43.748Z,98538.21
2018-04-29T21:24:11.233Z,98537.69
2018-04-29T21:26:38.695Z,98537.91
2018-04-29T21:29:06.158Z,98540.47
2018-04-29T21:31:33.624Z,98534.20
2018-04-29T21:34:01.097Z,98537.13
2018-04-29T21:36:28.551Z,98535.83
2018-04-29T21:38:56.163Z,98532.80
2018-04-29T21:41:23.622Z,98526.77
2018-04-29T21:43:51.104Z,98525.62
2018-04-29T21:46:18.568Z,98524.13
2018-04-29T21:48:46.033Z,98513.19
2018-04-29T21:51:13.555Z,98521.75
2018-04-29T21:53:41.096Z,98520.31
2018-04-29T21:56:08.598Z,98518.11
2018-04-29T21:58:36.457Z,98525.17
2018-04-29T22:01:03.955Z,98524.53
2018-04-29T22:03:31.442Z,98519.41
2018-04-29T22:05:58.977Z,98517.84
2018-04-29T22:08:26.443Z,98520.58
2018-04-29T22:10:53.916Z,98529.02
2018-04-29T22:13:21.445Z,98526.22
2018-04-29T22:15:48.957Z,98525.03
2018-04-29T22:18:16.503Z,98529.20
2018-04-29T22:20:43.980Z,98514.82
2018-04-29T22:23:11.468Z,98520.38
2018-04-29T22:25:38.991Z,98519.90
2018-04-29T22:28:06.460Z,98512.84
2018-04-29T22:30:33.961Z,98519.69
2018-04-29T22:33:01.493Z,98521.91
2018-04-29T22:35:28.969Z,98504.92
2018-04-29T22:37:56.461Z,98515.08
2018-04-29T22:40:24.017Z,98509.72
2018-04-29T22:42:51.485Z,98509.81
2018-04-29T22:45:22.824Z,98510.48
2018-04-29T22:47:50.411Z,98502.83
2018-04-29T22:50:17.872Z,98499.81
2018-04-29T22:52:45.806Z,98499.56
2018-04-29T22:55:13.272Z,98497.67
2018-04-29T22:57:40.773Z,98486.52
2018-04-29T23:00:08.343Z,98482.86
2018-04-29T23:02:35.815Z,98483.31
2018-04-29T23:05:03.381Z,98481.25
2018-04-29T23:07:30.903Z,98482.33
2018-04-29T23:09:58.359Z,98481.86
2018-04-29T23:12:25.838Z,98477.24
2018-04-29T23:14:53.305Z,98465.30
2018-04-29T23:17:20.823Z,98466.77
2018-04-29T23:19:48.366Z,98464.98
2018-04-29T23:22:15.902Z,98457.80
2018-04-29T23:24:43.438Z,98452.09
2018-04-29T23:27:10.983Z,98458.62
2018-04-29T23:29:38.976Z,98452.91
2018-04-29T23:32:06.460Z,98449.72
2018-04-29T23:34:33.940Z,98444.46
2018-04-29T23:37:01.478Z,98445.16
2018-04-29T23:39:29.023Z,98437.78
2018-04-29T23:41:56.571Z,98436.46
2018-04-29T23:44:24.023Z,98437.59
2018-04-29T23:46:51.487Z,98433.72
2018-04-29T23:49:18.971Z,98430.08
2018-04-29T23:51:46.431Z,98425.36
2018-04-29T23:54:13.925Z,98421.21
2018-04-29T23:56:41.383Z,98424.63
2018-04-29T23:59:08.869Z,98409.29
